createdAt,value
2023-05-06T00:02:14.324Z,62.76
2023-05-06T00:07:17.465Z,63.14
2023-05-06T00:12:20.771Z,63.83
2023-05-06T00:17:24.165Z,64.21
2023-05-06T00:22:27.391Z,64.17
2023-05-06T00:27:30.515Z,64.07
2023-05-06T00:32:33.518Z,63.47
2023-05-06T00:37:36.612Z,63.20
2023-05-06T00:42:39.812Z,62.08
2023-05-06T00:47:43.479Z,62.20
2023-05-06T00:52:46.847Z,61.97
2023-05-06T00:57:50.770Z,60.86
2023-05-06T01:02:53.802Z,60.89
2023-05-06T01:08:16.033Z,60.92
2023-05-06T01:13:18.952Z,60.01
2023-05-06T01:18:23.570Z,61.08
2023-05-06T01:23:26.799Z,60.72
2023-05-06T01:28:29.883Z,61.58
2023-05-06T01:33:37.508Z,61.95
2023-05-06T01:38:56.078Z,62.71
2023-05-06T01:44:00.625Z,63.14
2023-05-06T01:49:10.647Z,63.28
2023-05-06T01:54:14.392Z,62.73
2023-05-06T01:59:17.510Z,63.71
2023-05-06T02:04:20.604Z,62.66
2023-05-06T02:09:23.715Z,62.98
2023-05-06T02:14:27.121Z,63.11
2023-05-06T02:19:30.345Z,64.25
2023-05-06T02:24:33.333Z,65.12
2023-05-06T02:29:36.438Z,65.35
2023-05-06T02:34:39.442Z,64.44
2023-05-06T02:39:42.444Z,63.99
2023-05-06T02:44:45.344Z,64.23
2023-05-06T02:49:48.247Z,67.23
2023-05-06T02:54:51.144Z,67.59
2023-05-06T02:59:54.156Z,68.18
2023-05-06T03:04:57.148Z,65.90
2023-05-06T03:10:00.361Z,66.29
2023-05-06T03:15:03.880Z,66.52
2023-05-06T03:20:08.957Z,66.25
2023-05-06T03:25:12.284Z,66.07
2023-05-06T03:30:15.642Z,65.51
2023-05-06T03:35:18.866Z,64.73
2023-05-06T03:40:21.971Z,64.38
2023-05-06T03:45:25.061Z,63.57
2023-05-06T03:50:28.072Z,62.77
2023-05-06T03:55:31.278Z,62.00
2023-05-06T04:00:34.275Z,60.31
2023-05-06T04:05:37.286Z,57.40
2023-05-06T04:10:41.205Z,55.47
2023-05-06T04:15:44.128Z,51.03
2023-05-06T04:20:48.373Z,50.43
2023-05-06T04:25:51.338Z,51.35
2023-05-06T04:30:54.342Z,51.79
2023-05-06T04:35:57.452Z,52.25
2023-05-06T04:41:00.670Z,52.72
2023-05-06T04:46:03.842Z,52.60
2023-05-06T04:51:06.871Z,52.65
2023-05-06T04:56:09.873Z,52.61
2023-05-06T05:01:12.892Z,52.61
2023-05-06T05:06:16.392Z,53.10
2023-05-06T05:11:19.709Z,53.27
2023-05-06T05:16:22.832Z,53.05
2023-05-06T05:21:26.120Z,52.24
2023-05-06T05:26:29.346Z,51.18
2023-05-06T05:31:33.019Z,50.81
2023-05-06T05:36:36.462Z,49.47
2023-05-06T05:41:40.090Z,48.44
2023-05-06T05:46:43.179Z,47.25
2023-05-06T05:51:46.285Z,46.92
2023-05-06T05:56:50.722Z,47.13
2023-05-06T06:01:53.625Z,45.66
2023-05-06T06:07:02.112Z,44.49
2023-05-06T06:12:05.274Z,45.23
2023-05-06T06:17:08.495Z,43.97
2023-05-06T06:22:11.576Z,43.02
2023-05-06T06:27:14.783Z,43.11
2023-05-06T06:32:18.501Z,40.70
2023-05-06T06:37:21.816Z,40.22
2023-05-06T06:42:24.816Z,39.11
2023-05-06T06:47:27.943Z,37.86
2023-05-06T06:52:31.953Z,37.25
2023-05-06T06:57:35.676Z,37.23
2023-05-06T07:02:39.024Z,37.02
2023-05-06T07:07:42.641Z,37.38
2023-05-06T07:12:46.075Z,36.96
2023-05-06T07:17:49.173Z,35.43
2023-05-06T07:22:52.223Z,33.89
2023-05-06T07:27:55.358Z,34.88
2023-05-06T07:32:58.460Z,34.14
2023-05-06T07:38:01.538Z,34.11
2023-05-06T07:43:04.655Z,33.80
2023-05-06T07:48:07.832Z,34.30
2023-05-06T07:53:12.084Z,34.02
2023-05-06T07:58:15.320Z,33.84
2023-05-06T08:03:18.647Z,33.52
2023-05-06T08:08:23.203Z,34.14
2023-05-06T08:13:27.174Z,34.22
2023-05-06T08:18:30.444Z,34.78
2023-05-06T08:23:33.796Z,34.51
2023-05-06T08:28:37.010Z,34.80
2023-05-06T08:33:39.900Z,34.97
2023-05-06T08:38:49.204Z,34.88
2023-05-06T08:43:54.614Z,35.20
2023-05-06T08:48:58.345Z,35.27
2023-05-06T08:54:05.130Z,35.16
2023-05-06T08:59:11.117Z,35.49
2023-05-06T09:04:16.456Z,36.55
2023-05-06T09:09:19.559Z,36.35
2023-05-06T09:14:23.078Z,36.66
2023-05-06T09:19:27.000Z,36.81
2023-05-06T09:24:30.003Z,37.03
2023-05-06T09:29:33.221Z,37.10
2023-05-06T09:34:36.544Z,37.77
2023-05-06T09:39:39.630Z,38.19
2023-05-06T09:44:42.842Z,38.18
2023-05-06T09:49:46.163Z,37.49
2023-05-06T09:54:51.759Z,37.28
2023-05-06T09:59:55.895Z,37.21
2023-05-06T10:05:00.074Z,37.49
2023-05-06T10:10:04.713Z,37.80
2023-05-06T10:15:09.069Z,37.96
2023-05-06T10:20:14.152Z,38.06
2023-05-06T10:25:22.680Z,37.99
2023-05-06T10:30:26.863Z,38.27
2023-05-06T10:35:39.285Z,38.72
2023-05-06T10:40:42.798Z,38.38
2023-05-06T10:45:59.118Z,38.69
2023-05-06T10:51:32.017Z,38.22
2023-05-06T10:57:03.196Z,37.49
2023-05-06T11:02:10.436Z,37.76
2023-05-06T11:07:22.091Z,38.59
2023-05-06T11:12:44.369Z,37.90
2023-05-06T11:17:47.493Z,38.20
2023-05-06T11:22:50.653Z,38.83
2023-05-06T11:27:56.234Z,38.89
2023-05-06T11:33:05.567Z,38.67
2023-05-06T11:38:09.458Z,38.36
2023-05-06T11:43:12.611Z,38.35
2023-05-06T11:48:16.324Z,36.87
2023-05-06T11:53:21.331Z,37.03
2023-05-06T11:58:27.792Z,37.56
2023-05-06T12:03:33.392Z,37.81
2023-05-06T12:08:37.345Z,37.45
2023-05-06T12:13:40.959Z,37.41
2023-05-06T12:18:45.084Z,37.01
2023-05-06T12:23:55.595Z,37.08
2023-05-06T12:29:09.137Z,37.23
2023-05-06T12:34:12.145Z,37.47
2023-05-06T12:39:15.239Z,37.73
2023-05-06T12:44:38.007Z,37.64
2023-05-06T12:49:48.072Z,37.69
2023-05-06T12:54:54.939Z,38.64
2023-05-06T12:59:58.188Z,39.52
2023-05-06T13:05:02.195Z,39.18
2023-05-06T13:10:08.588Z,39.15
2023-05-06T13:15:12.002Z,38.79
2023-05-06T13:20:15.315Z,38.90
2023-05-06T13:25:18.428Z,39.13
2023-05-06T13:30:21.509Z,38.31
2023-05-06T13:35:24.610Z,37.64
2023-05-06T13:40:27.732Z,37.98
2023-05-06T13:45:31.140Z,37.79
2023-05-06T13:50:36.286Z,37.23
2023-05-06T13:55:39.499Z,37.97
2023-05-06T14:00:42.493Z,37.79
2023-05-06T14:05:45.599Z,37.84
2023-05-06T14:10:48.615Z,38.16
2023-05-06T14:15:51.626Z,38.08
2023-05-06T14:20:55.017Z,37.97
2023-05-06T14:25:58.343Z,38.37
2023-05-06T14:31:01.350Z,38.64
2023-05-06T14:36:04.748Z,38.95
2023-05-06T14:41:07.681Z,39.38
2023-05-06T14:46:11.630Z,39.72
2023-05-06T14:51:14.785Z,39.32
2023-05-06T14:56:17.816Z,39.45
2023-05-06T15:01:20.942Z,40.00
2023-05-06T15:06:24.243Z,39.56
2023-05-06T15:11:27.422Z,39.07
2023-05-06T15:16:30.907Z,39.14
2023-05-06T15:21:34.234Z,39.22
2023-05-06T15:26:37.240Z,38.58
2023-05-06T15:31:41.273Z,38.99
2023-05-06T15:36:44.783Z,39.19
2023-05-06T15:41:48.395Z,39.03
2023-05-06T15:46:51.444Z,39.04
2023-05-06T15:51:54.919Z,38.91
2023-05-06T15:57:00.792Z,39.09
2023-05-06T16:07:10.080Z,39.23
2023-05-06T16:12:15.028Z,39.04
2023-05-06T16:17:18.258Z,39.03
2023-05-06T16:22:21.426Z,39.21
2023-05-06T16:27:24.746Z,39.85
2023-05-06T16:32:27.874Z,40.45
2023-05-06T16:37:31.387Z,40.67
2023-05-06T16:42:34.473Z,40.72
2023-05-06T16:47:37.572Z,40.73
2023-05-06T16:52:41.191Z,41.07
2023-05-06T16:57:44.316Z,41.06
2023-05-06T17:02:47.791Z,41.49
2023-05-06T17:07:51.075Z,41.81
2023-05-06T17:12:54.267Z,42.31
2023-05-06T17:17:57.599Z,42.55
2023-05-06T17:23:00.864Z,42.81
2023-05-06T17:28:03.952Z,43.27
2023-05-06T17:33:07.626Z,43.34
2023-05-06T17:38:12.212Z,44.24
2023-05-06T17:43:16.090Z,44.17
2023-05-06T17:48:19.372Z,44.46
2023-05-06T17:53:23.389Z,44.63
2023-05-06T17:58:27.500Z,44.53
2023-05-06T18:03:31.215Z,44.23
2023-05-06T18:08:34.530Z,43.66
2023-05-06T18:13:37.759Z,45.38
2023-05-06T18:18:41.275Z,45.95
2023-05-06T18:23:45.031Z,45.66
2023-05-06T18:28:48.517Z,45.82
2023-05-06T18:33:52.359Z,46.96
2023-05-06T18:38:55.829Z,47.21
2023-05-06T18:43:59.441Z,46.88
2023-05-06T18:49:02.888Z,47.62
2023-05-06T18:54:07.717Z,48.76
2023-05-06T18:59:11.701Z,47.34
2023-05-06T19:04:15.390Z,47.54
2023-05-06T19:09:18.984Z,48.28
2023-05-06T19:14:23.684Z,49.08
2023-05-06T19:19:28.661Z,49.47
2023-05-06T19:24:31.977Z,48.95
2023-05-06T19:29:35.280Z,48.31
2023-05-06T19:34:39.208Z,50.23
2023-05-06T19:39:42.986Z,51.04
2023-05-06T19:44:47.389Z,52.19
2023-05-06T19:49:52.175Z,51.92
2023-05-06T19:54:55.928Z,51.79
2023-05-06T20:00:00.695Z,51.24
2023-05-06T20:05:07.134Z,52.12
2023-05-06T20:10:13.810Z,52.57
2023-05-06T20:15:17.798Z,52.13
2023-05-06T20:20:21.600Z,53.11
2023-05-06T20:25:25.421Z,53.03
2023-05-06T20:30:28.673Z,53.10
2023-05-06T20:35:32.043Z,51.95
2023-05-06T20:40:37.918Z,52.98
2023-05-06T20:45:41.609Z,52.77
2023-05-06T20:50:45.150Z,52.97
2023-05-06T20:55:48.954Z,52.94
2023-05-06T21:00:52.742Z,53.90
2023-05-06T21:05:55.792Z,53.02
2023-05-06T21:10:58.964Z,54.02
2023-05-06T21:16:03.438Z,54.41
2023-05-06T21:21:06.755Z,53.76
2023-05-06T21:26:11.274Z,54.65
2023-05-06T21:31:15.028Z,55.66
2023-05-06T21:36:18.046Z,53.84
2023-05-06T21:41:21.518Z,53.61
2023-05-06T21:46:24.679Z,54.66
2023-05-06T21:51:29.544Z,55.16
2023-05-06T21:56:32.881Z,54.65
2023-05-06T22:01:36.825Z,54.75
2023-05-06T22:06:40.016Z,54.86
2023-05-06T22:11:43.122Z,56.63
2023-05-06T22:16:46.130Z,57.69
2023-05-06T22:21:49.333Z,57.10
2023-05-06T22:26:52.435Z,56.50
2023-05-06T22:31:56.101Z,55.62
2023-05-06T22:37:00.698Z,56.44
2023-05-06T22:42:04.516Z,56.81
2023-05-06T22:47:07.534Z,56.98
2023-05-06T22:52:10.825Z,56.12
2023-05-06T22:57:14.678Z,56.62
2023-05-06T23:02:17.862Z,56.63
2023-05-06T23:07:20.865Z,57.76
2023-05-06T23:12:23.973Z,58.09
2023-05-06T23:17:27.036Z,58.03
2023-05-06T23:22:29.974Z,58.61
2023-05-06T23:27:33.013Z,58.82
2023-05-06T23:32:36.726Z,58.42
2023-05-06T23:37:40.010Z,59.08
2023-05-06T23:42:43.121Z,60.42
2023-05-06T23:47:46.575Z,60.16
2023-05-06T23:52:49.687Z,60.17
2023-05-06T23:57:53.035Z,60.87
